sensor_id;sensor_type;location;lat;lon;timestamp;temperature;humidity
27619;DHT22;15039;50.830;4.730;2023-02-28T00:00:33;0.50;99.90
27619;DHT22;15039;50.830;4.730;2023-02-28T00:03:00;0.50;99.90
27619;DHT22;15039;50.830;4.730;2023-02-28T00:05:27;0.90;99.90
27619;DHT22;15039;50.830;4.730;2023-02-28T00:07:53;0.60;99.90
27619;DHT22;15039;50.830;4.730;2023-02-28T00:10:25;0.40;99.90
27619;DHT22;15039;50.830;4.730;2023-02-28T00:12:53;0.40;99.90
27619;DHT22;15039;50.830;4.730;2023-02-28T00:15:20;0.30;99.90
27619;DHT22;15039;50.830;4.730;2023-02-28T00:17:47;0.40;99.90
27619;DHT22;15039;50.830;4.730;2023-02-28T00:20:13;0.30;99.90
27619;DHT22;15039;50.830;4.730;2023-02-28T00:22:43;0.30;99.90
27619;DHT22;15039;50.830;4.730;2023-02-28T00:25:11;0.30;99.90
27619;DHT22;15039;50.830;4.730;2023-02-28T00:27:38;0.30;99.90
27619;DHT22;15039;50.830;4.730;2023-02-28T00:30:06;0.20;99.90
27619;DHT22;15039;50.830;4.730;2023-02-28T00:32:32;0.00;99.90
27619;DHT22;15039;50.830;4.730;2023-02-28T00:34:58;0.20;99.90
27619;DHT22;15039;50.830;4.730;2023-02-28T00:37:23;0.10;99.90
27619;DHT22;15039;50.830;4.730;2023-02-28T00:39:49;0.10;99.90
27619;DHT22;15039;50.830;4.730;2023-02-28T00:42:15;0.00;99.90
27619;DHT22;15039;50.830;4.730;2023-02-28T00:44:41;0.00;99.90
27619;DHT22;15039;50.830;4.730;2023-02-28T00:47:06;-0.10;99.90
27619;DHT22;15039;50.830;4.730;2023-02-28T00:49:32;0.00;99.90
27619;DHT22;15039;50.830;4.730;2023-02-28T00:51:58;0.00;99.90
27619;DHT22;15039;50.830;4.730;2023-02-28T00:54:24;-0.10;99.90
27619;DHT22;15039;50.830;4.730;2023-02-28T00:56:50;-0.10;99.90
27619;DHT22;15039;50.830;4.730;2023-02-28T00:59:16;0.00;99.90
27619;DHT22;15039;50.830;4.730;2023-02-28T01:01:44;-0.10;99.90
27619;DHT22;15039;50.830;4.730;2023-02-28T01:04:10;-0.30;99.90
27619;DHT22;15039;50.830;4.730;2023-02-28T01:06:36;-0.30;99.90
27619;DHT22;15039;50.830;4.730;2023-02-28T01:09:03;-0.30;99.90
27619;DHT22;15039;50.830;4.730;2023-02-28T01:11:29;-0.10;99.90
27619;DHT22;15039;50.830;4.730;2023-02-28T01:13:55;-0.20;99.90
27619;DHT22;15039;50.830;4.730;2023-02-28T01:16:21;-0.30;99.90
27619;DHT22;15039;50.830;4.730;2023-02-28T01:18:46;-0.30;99.90
27619;DHT22;15039;50.830;4.730;2023-02-28T01:21:15;-0.30;99.90
27619;DHT22;15039;50.830;4.730;2023-02-28T01:23:41;-0.20;99.90
27619;DHT22;15039;50.830;4.730;2023-02-28T01:26:17;-0.10;99.90
27619;DHT22;15039;50.830;4.730;2023-02-28T01:28:43;-0.10;99.90
27619;DHT22;15039;50.830;4.730;2023-02-28T01:31:09;-0.30;99.90
27619;DHT22;15039;50.830;4.730;2023-02-28T01:33:36;-0.30;99.90
27619;DHT22;15039;50.830;4.730;2023-02-28T01:36:05;-0.40;99.90
27619;DHT22;15039;50.830;4.730;2023-02-28T01:38:32;-0.40;99.90
27619;DHT22;15039;50.830;4.730;2023-02-28T01:40:58;-0.40;99.90
27619;DHT22;15039;50.830;4.730;2023-02-28T01:46:15;-0.30;99.90
27619;DHT22;15039;50.830;4.730;2023-02-28T01:49:06;-0.30;99.90
27619;DHT22;15039;50.830;4.730;2023-02-28T01:54:11;-0.40;99.90
27619;DHT22;15039;50.830;4.730;2023-02-28T01:56:43;-0.50;99.90
27619;DHT22;15039;50.830;4.730;2023-02-28T01:59:12;-0.60;99.90
27619;DHT22;15039;50.830;4.730;2023-02-28T02:01:39;-0.50;99.90
27619;DHT22;15039;50.830;4.730;2023-02-28T02:04:05;-0.50;99.90
27619;DHT22;15039;50.830;4.730;2023-02-28T02:06:37;-0.50;99.90
27619;DHT22;15039;50.830;4.730;2023-02-28T02:09:04;-0.60;99.90
27619;DHT22;15039;50.830;4.730;2023-02-28T02:11:30;-0.70;99.90
27619;DHT22;15039;50.830;4.730;2023-02-28T02:17:28;-0.80;99.90
27619;DHT22;15039;50.830;4.730;2023-02-28T02:26:13;-0.90;99.90
27619;DHT22;15039;50.830;4.730;2023-02-28T02:31:46;-0.90;99.90
27619;DHT22;15039;50.830;4.730;2023-02-28T02:34:23;-0.80;99.90
27619;DHT22;15039;50.830;4.730;2023-02-28T02:39:40;-0.90;99.90
27619;DHT22;15039;50.830;4.730;2023-02-28T02:42:40;-1.00;99.90
27619;DHT22;15039;50.830;4.730;2023-02-28T02:45:14;-0.90;99.90
27619;DHT22;15039;50.830;4.730;2023-02-28T02:47:41;-0.90;99.90
27619;DHT22;15039;50.830;4.730;2023-02-28T02:50:12;-0.80;99.90
27619;DHT22;15039;50.830;4.730;2023-02-28T02:52:44;-0.90;99.90
27619;DHT22;15039;50.830;4.730;2023-02-28T02:55:13;-0.90;99.90
27619;DHT22;15039;50.830;4.730;2023-02-28T02:57:46;-1.00;99.90
27619;DHT22;15039;50.830;4.730;2023-02-28T03:00:16;-1.00;99.90
27619;DHT22;15039;50.830;4.730;2023-02-28T03:02:45;-1.00;99.90
27619;DHT22;15039;50.830;4.730;2023-02-28T03:05:20;-0.80;99.90
27619;DHT22;15039;50.830;4.730;2023-02-28T03:07:46;-0.80;99.90
27619;DHT22;15039;50.830;4.730;2023-02-28T03:13:23;-0.60;99.90
27619;DHT22;15039;50.830;4.730;2023-02-28T03:16:22;-0.70;99.90
27619;DHT22;15039;50.830;4.730;2023-02-28T03:21:47;-0.70;99.90
27619;DHT22;15039;50.830;4.730;2023-02-28T03:29:50;-0.90;99.90
27619;DHT22;15039;50.830;4.730;2023-02-28T03:32:24;-0.90;99.90
27619;DHT22;15039;50.830;4.730;2023-02-28T03:34:59;-0.80;99.90
27619;DHT22;15039;50.830;4.730;2023-02-28T03:37:29;-1.00;99.90
27619;DHT22;15039;50.830;4.730;2023-02-28T03:40:00;-0.80;99.90
27619;DHT22;15039;50.830;4.730;2023-02-28T03:42:29;-0.70;99.90
27619;DHT22;15039;50.830;4.730;2023-02-28T03:45:02;-0.70;99.90
27619;DHT22;15039;50.830;4.730;2023-02-28T03:47:54;-0.80;99.90
27619;DHT22;15039;50.830;4.730;2023-02-28T03:50:24;-1.00;99.90
27619;DHT22;15039;50.830;4.730;2023-02-28T03:53:13;-1.00;99.90
27619;DHT22;15039;50.830;4.730;2023-02-28T03:56:00;-1.10;99.90
27619;DHT22;15039;50.830;4.730;2023-02-28T03:58:30;-0.80;99.90
27619;DHT22;15039;50.830;4.730;2023-02-28T04:01:08;-0.70;99.90
27619;DHT22;15039;50.830;4.730;2023-02-28T04:03:39;-0.60;99.90
27619;DHT22;15039;50.830;4.730;2023-02-28T04:06:08;-0.80;99.90
27619;DHT22;15039;50.830;4.730;2023-02-28T04:08:38;-0.90;99.90
27619;DHT22;15039;50.830;4.730;2023-02-28T04:11:08;-1.10;99.90
27619;DHT22;15039;50.830;4.730;2023-02-28T04:13:38;-0.90;99.90
27619;DHT22;15039;50.830;4.730;2023-02-28T04:16:07;-0.40;99.90
27619;DHT22;15039;50.830;4.730;2023-02-28T04:18:38;-0.50;99.90
27619;DHT22;15039;50.830;4.730;2023-02-28T04:21:04;-0.60;99.90
27619;DHT22;15039;50.830;4.730;2023-02-28T04:23:30;-0.90;99.90
27619;DHT22;15039;50.830;4.730;2023-02-28T04:25:56;-0.70;99.90
27619;DHT22;15039;50.830;4.730;2023-02-28T04:28:21;-0.70;99.90
27619;DHT22;15039;50.830;4.730;2023-02-28T04:30:47;-0.70;99.90
27619;DHT22;15039;50.830;4.730;2023-02-28T04:33:13;-0.60;99.90
27619;DHT22;15039;50.830;4.730;2023-02-28T04:35:38;-0.70;99.90
27619;DHT22;15039;50.830;4.730;2023-02-28T04:38:04;-0.60;99.90
27619;DHT22;15039;50.830;4.730;2023-02-28T04:40:29;-0.30;99.90
27619;DHT22;15039;50.830;4.730;2023-02-28T04:42:55;-0.30;99.90
27619;DHT22;15039;50.830;4.730;2023-02-28T04:45:21;-0.20;99.90
27619;DHT22;15039;50.830;4.730;2023-02-28T04:47:46;-0.30;99.90
27619;DHT22;15039;50.830;4.730;2023-02-28T04:50:12;-0.40;99.90
27619;DHT22;15039;50.830;4.730;2023-02-28T04:52:37;-0.30;99.90
27619;DHT22;15039;50.830;4.730;2023-02-28T04:55:03;-0.10;99.90
27619;DHT22;15039;50.830;4.730;2023-02-28T04:57:29;0.00;99.90
27619;DHT22;15039;50.830;4.730;2023-02-28T04:59:55;0.10;99.90
27619;DHT22;15039;50.830;4.730;2023-02-28T05:02:20;0.10;99.90
27619;DHT22;15039;50.830;4.730;2023-02-28T05:04:46;-0.20;99.90
27619;DHT22;15039;50.830;4.730;2023-02-28T05:07:12;-0.20;99.90
27619;DHT22;15039;50.830;4.730;2023-02-28T05:09:37;-0.30;99.90
27619;DHT22;15039;50.830;4.730;2023-02-28T05:12:03;-0.40;99.90
27619;DHT22;15039;50.830;4.730;2023-02-28T05:14:28;-0.50;99.90
27619;DHT22;15039;50.830;4.730;2023-02-28T05:16:54;-0.30;99.90
27619;DHT22;15039;50.830;4.730;2023-02-28T05:19:20;-0.40;99.90
27619;DHT22;15039;50.830;4.730;2023-02-28T05:21:54;-0.40;99.90
27619;DHT22;15039;50.830;4.730;2023-02-28T05:24:20;-0.40;99.90
27619;DHT22;15039;50.830;4.730;2023-02-28T05:26:50;-0.40;99.90
27619;DHT22;15039;50.830;4.730;2023-02-28T05:29:17;-0.40;99.90
27619;DHT22;15039;50.830;4.730;2023-02-28T05:31:42;-0.40;99.90
27619;DHT22;15039;50.830;4.730;2023-02-28T05:34:08;-0.30;99.90
27619;DHT22;15039;50.830;4.730;2023-02-28T05:36:36;-0.30;99.90
27619;DHT22;15039;50.830;4.730;2023-02-28T05:39:02;-0.30;99.90
27619;DHT22;15039;50.830;4.730;2023-02-28T05:41:28;-0.40;99.90
27619;DHT22;15039;50.830;4.730;2023-02-28T05:43:54;-0.50;99.90
27619;DHT22;15039;50.830;4.730;2023-02-28T05:46:19;-0.70;99.90
27619;DHT22;15039;50.830;4.730;2023-02-28T05:48:47;-0.80;99.90
27619;DHT22;15039;50.830;4.730;2023-02-28T05:51:13;-0.60;99.90
27619;DHT22;15039;50.830;4.730;2023-02-28T05:53:38;-0.70;99.90
27619;DHT22;15039;50.830;4.730;2023-02-28T05:56:04;-0.30;99.90
27619;DHT22;15039;50.830;4.730;2023-02-28T05:58:30;-0.10;99.90
27619;DHT22;15039;50.830;4.730;2023-02-28T06:00:59;-0.10;99.90
27619;DHT22;15039;50.830;4.730;2023-02-28T06:03:26;-0.40;99.90
27619;DHT22;15039;50.830;4.730;2023-02-28T06:05:52;-0.80;99.90
27619;DHT22;15039;50.830;4.730;2023-02-28T06:08:17;-0.60;99.90
27619;DHT22;15039;50.830;4.730;2023-02-28T06:10:44;-0.40;99.90
27619;DHT22;15039;50.830;4.730;2023-02-28T06:13:10;-0.30;99.90
27619;DHT22;15039;50.830;4.730;2023-02-28T06:15:37;-0.30;99.90
27619;DHT22;15039;50.830;4.730;2023-02-28T06:18:02;0.00;99.90
27619;DHT22;15039;50.830;4.730;2023-02-28T06:20:28;-0.20;99.90
27619;DHT22;15039;50.830;4.730;2023-02-28T06:22:58;-0.50;99.90
27619;DHT22;15039;50.830;4.730;2023-02-28T06:25:25;-0.30;99.90
27619;DHT22;15039;50.830;4.730;2023-02-28T06:27:51;-0.70;99.90
27619;DHT22;15039;50.830;4.730;2023-02-28T06:30:17;-0.90;99.90
27619;DHT22;15039;50.830;4.730;2023-02-28T06:32:43;-1.00;99.90
27619;DHT22;15039;50.830;4.730;2023-02-28T06:35:08;-1.00;99.90
27619;DHT22;15039;50.830;4.730;2023-02-28T06:37:34;-0.80;99.90
27619;DHT22;15039;50.830;4.730;2023-02-28T06:40:00;-0.50;99.90
27619;DHT22;15039;50.830;4.730;2023-02-28T06:42:25;-0.40;99.90
27619;DHT22;15039;50.830;4.730;2023-02-28T06:44:54;-0.40;99.90
27619;DHT22;15039;50.830;4.730;2023-02-28T06:47:26;-0.20;99.90
27619;DHT22;15039;50.830;4.730;2023-02-28T06:49:59;-0.10;99.90
27619;DHT22;15039;50.830;4.730;2023-02-28T06:52:26;-0.30;99.90
27619;DHT22;15039;50.830;4.730;2023-02-28T06:54:52;-0.20;99.90
27619;DHT22;15039;50.830;4.730;2023-02-28T06:57:29;-0.50;99.90
27619;DHT22;15039;50.830;4.730;2023-02-28T06:59:59;-0.70;99.90
27619;DHT22;15039;50.830;4.730;2023-02-28T07:02:25;-0.80;99.90
27619;DHT22;15039;50.830;4.730;2023-02-28T07:04:51;-0.70;99.90
27619;DHT22;15039;50.830;4.730;2023-02-28T07:07:16;-0.90;99.90
27619;DHT22;15039;50.830;4.730;2023-02-28T07:09:42;-0.90;99.90
27619;DHT22;15039;50.830;4.730;2023-02-28T07:12:08;-0.70;99.90
27619;DHT22;15039;50.830;4.730;2023-02-28T07:14:33;-0.70;99.90
27619;DHT22;15039;50.830;4.730;2023-02-28T07:16:59;-0.70;99.90
27619;DHT22;15039;50.830;4.730;2023-02-28T07:19:24;-0.60;99.90
27619;DHT22;15039;50.830;4.730;2023-02-28T07:21:50;-0.30;99.90
27619;DHT22;15039;50.830;4.730;2023-02-28T07:24:16;-0.20;99.90
27619;DHT22;15039;50.830;4.730;2023-02-28T07:26:43;-0.10;99.90
27619;DHT22;15039;50.830;4.730;2023-02-28T07:29:09;-0.20;99.90
27619;DHT22;15039;50.830;4.730;2023-02-28T07:31:35;-0.10;99.90
27619;DHT22;15039;50.830;4.730;2023-02-28T07:34:00;-0.10;99.90
27619;DHT22;15039;50.830;4.730;2023-02-28T07:36:26;-0.10;99.90
27619;DHT22;15039;50.830;4.730;2023-02-28T07:38:51;-0.10;99.90
27619;DHT22;15039;50.830;4.730;2023-02-28T07:41:19;-0.10;99.90
27619;DHT22;15039;50.830;4.730;2023-02-28T07:43:45;0.00;99.90
27619;DHT22;15039;50.830;4.730;2023-02-28T07:46:34;0.20;99.90
27619;DHT22;15039;50.830;4.730;2023-02-28T07:49:01;0.30;99.90
27619;DHT22;15039;50.830;4.730;2023-02-28T07:51:31;0.30;99.90
27619;DHT22;15039;50.830;4.730;2023-02-28T07:53:56;0.50;99.90
27619;DHT22;15039;50.830;4.730;2023-02-28T07:56:22;0.60;99.90
27619;DHT22;15039;50.830;4.730;2023-02-28T07:58:48;0.70;99.90
27619;DHT22;15039;50.830;4.730;2023-02-28T08:01:14;0.60;99.90
27619;DHT22;15039;50.830;4.730;2023-02-28T08:03:40;0.90;99.90
27619;DHT22;15039;50.830;4.730;2023-02-28T08:06:15;0.80;99.90
27619;DHT22;15039;50.830;4.730;2023-02-28T08:08:41;0.80;99.90
27619;DHT22;15039;50.830;4.730;2023-02-28T08:11:07;1.00;99.90
27619;DHT22;15039;50.830;4.730;2023-02-28T08:13:32;1.00;99.90
27619;DHT22;15039;50.830;4.730;2023-02-28T08:15:58;1.10;99.90
27619;DHT22;15039;50.830;4.730;2023-02-28T08:18:23;1.10;99.90
27619;DHT22;15039;50.830;4.730;2023-02-28T08:20:49;1.20;99.90
27619;DHT22;15039;50.830;4.730;2023-02-28T08:23:15;1.30;99.90
27619;DHT22;15039;50.830;4.730;2023-02-28T08:25:41;1.30;99.90
27619;DHT22;15039;50.830;4.730;2023-02-28T08:28:15;1.30;99.90
27619;DHT22;15039;50.830;4.730;2023-02-28T08:30:41;1.50;99.90
27619;DHT22;15039;50.830;4.730;2023-02-28T08:33:07;1.50;99.90
27619;DHT22;15039;50.830;4.730;2023-02-28T08:35:35;1.40;99.90
27619;DHT22;15039;50.830;4.730;2023-02-28T08:38:01;1.60;99.90
27619;DHT22;15039;50.830;4.730;2023-02-28T08:40:29;1.40;99.90
27619;DHT22;15039;50.830;4.730;2023-02-28T08:42:55;1.40;99.90
27619;DHT22;15039;50.830;4.730;2023-02-28T08:45:20;1.50;99.90
27619;DHT22;15039;50.830;4.730;2023-02-28T08:47:46;1.40;99.90
27619;DHT22;15039;50.830;4.730;2023-02-28T08:50:11;1.60;99.90
27619;DHT22;15039;50.830;4.730;2023-02-28T08:52:42;1.70;99.90
27619;DHT22;15039;50.830;4.730;2023-02-28T08:55:08;1.80;99.90
27619;DHT22;15039;50.830;4.730;2023-02-28T08:57:37;1.80;99.90
27619;DHT22;15039;50.830;4.730;2023-02-28T09:00:04;1.90;99.90
27619;DHT22;15039;50.830;4.730;2023-02-28T09:02:32;1.90;99.90
27619;DHT22;15039;50.830;4.730;2023-02-28T09:04:58;1.90;99.90
27619;DHT22;15039;50.830;4.730;2023-02-28T09:07:24;2.00;99.90
27619;DHT22;15039;50.830;4.730;2023-02-28T09:09:50;2.10;99.90
27619;DHT22;15039;50.830;4.730;2023-02-28T09:12:27;2.20;99.90
27619;DHT22;15039;50.830;4.730;2023-02-28T09:15:02;2.30;99.90
27619;DHT22;15039;50.830;4.730;2023-02-28T09:17:28;2.40;99.90
27619;DHT22;15039;50.830;4.730;2023-02-28T09:19:54;2.50;99.90
27619;DHT22;15039;50.830;4.730;2023-02-28T09:22:22;2.40;99.90
27619;DHT22;15039;50.830;4.730;2023-02-28T09:24:48;2.40;99.90
27619;DHT22;15039;50.830;4.730;2023-02-28T09:27:13;2.50;99.90
27619;DHT22;15039;50.830;4.730;2023-02-28T09:29:39;2.50;99.90
27619;DHT22;15039;50.830;4.730;2023-02-28T09:32:05;2.70;99.90
27619;DHT22;15039;50.830;4.730;2023-02-28T09:34:31;2.70;99.90
27619;DHT22;15039;50.830;4.730;2023-02-28T09:36:56;2.70;99.90
27619;DHT22;15039;50.830;4.730;2023-02-28T09:39:22;2.80;99.90
27619;DHT22;15039;50.830;4.730;2023-02-28T09:41:52;2.90;99.90
27619;DHT22;15039;50.830;4.730;2023-02-28T09:44:37;2.80;99.90
27619;DHT22;15039;50.830;4.730;2023-02-28T09:47:32;2.80;99.90
27619;DHT22;15039;50.830;4.730;2023-02-28T09:50:29;2.80;99.90
27619;DHT22;15039;50.830;4.730;2023-02-28T09:52:55;2.90;99.90
27619;DHT22;15039;50.830;4.730;2023-02-28T09:55:39;3.00;99.90
27619;DHT22;15039;50.830;4.730;2023-02-28T10:01:03;3.20;99.90
27619;DHT22;15039;50.830;4.730;2023-02-28T10:03:32;3.10;99.90
27619;DHT22;15039;50.830;4.730;2023-02-28T10:06:19;3.30;99.90
27619;DHT22;15039;50.830;4.730;2023-02-28T10:11:30;3.40;99.90
27619;DHT22;15039;50.830;4.730;2023-02-28T10:14:05;3.40;99.90
27619;DHT22;15039;50.830;4.730;2023-02-28T10:16:39;3.40;99.90
27619;DHT22;15039;50.830;4.730;2023-02-28T10:21:38;3.40;99.90
27619;DHT22;15039;50.830;4.730;2023-02-28T10:24:17;3.40;99.90
27619;DHT22;15039;50.830;4.730;2023-02-28T10:26:47;3.50;99.90
27619;DHT22;15039;50.830;4.730;2023-02-28T10:29:13;3.50;99.90
27619;DHT22;15039;50.830;4.730;2023-02-28T10:31:39;3.50;99.90
27619;DHT22;15039;50.830;4.730;2023-02-28T10:34:05;3.50;99.90
27619;DHT22;15039;50.830;4.730;2023-02-28T10:36:31;3.50;99.90
27619;DHT22;15039;50.830;4.730;2023-02-28T10:38:57;3.70;99.90
27619;DHT22;15039;50.830;4.730;2023-02-28T10:41:29;3.80;99.90
27619;DHT22;15039;50.830;4.730;2023-02-28T10:44:23;3.90;99.90
27619;DHT22;15039;50.830;4.730;2023-02-28T10:46:49;4.00;99.90
27619;DHT22;15039;50.830;4.730;2023-02-28T10:49:24;3.90;99.90
27619;DHT22;15039;50.830;4.730;2023-02-28T10:51:56;3.90;99.90
27619;DHT22;15039;50.830;4.730;2023-02-28T10:54:34;3.90;99.90
27619;DHT22;15039;50.830;4.730;2023-02-28T10:57:23;3.90;99.90
27619;DHT22;15039;50.830;4.730;2023-02-28T11:00:20;4.00;99.90
27619;DHT22;15039;50.830;4.730;2023-02-28T11:02:47;4.00;99.90
27619;DHT22;15039;50.830;4.730;2023-02-28T11:05:33;4.10;99.90
27619;DHT22;15039;50.830;4.730;2023-02-28T11:08:12;4.20;99.90
27619;DHT22;15039;50.830;4.730;2023-02-28T11:10:38;4.10;99.90
27619;DHT22;15039;50.830;4.730;2023-02-28T11:13:05;4.10;99.90
27619;DHT22;15039;50.830;4.730;2023-02-28T11:15:33;4.20;99.90
27619;DHT22;15039;50.830;4.730;2023-02-28T11:20:37;4.10;99.90
27619;DHT22;15039;50.830;4.730;2023-02-28T11:23:04;4.00;99.90
27619;DHT22;15039;50.830;4.730;2023-02-28T11:25:33;3.90;99.90
27619;DHT22;15039;50.830;4.730;2023-02-28T11:28:01;3.90;99.90
27619;DHT22;15039;50.830;4.730;2023-02-28T11:30:37;3.90;99.90
27619;DHT22;15039;50.830;4.730;2023-02-28T11:33:26;3.80;99.90
27619;DHT22;15039;50.830;4.730;2023-02-28T11:35:52;3.80;99.90
27619;DHT22;15039;50.830;4.730;2023-02-28T11:38:20;3.80;99.90
27619;DHT22;15039;50.830;4.730;2023-02-28T11:41:03;3.90;99.90
27619;DHT22;15039;50.830;4.730;2023-02-28T11:46:33;4.20;99.90
27619;DHT22;15039;50.830;4.730;2023-02-28T11:49:26;4.40;99.90
27619;DHT22;15039;50.830;4.730;2023-02-28T12:00:36;4.50;99.90
27619;DHT22;15039;50.830;4.730;2023-02-28T12:11:40;4.80;99.90
27619;DHT22;15039;50.830;4.730;2023-02-28T12:14:25;4.70;99.70
27619;DHT22;15039;50.830;4.730;2023-02-28T12:22:31;4.80;99.90
27619;DHT22;15039;50.830;4.730;2023-02-28T12:27:34;4.80;99.90
27619;DHT22;15039;50.830;4.730;2023-02-28T12:30:06;4.90;99.90
27619;DHT22;15039;50.830;4.730;2023-02-28T12:32:46;5.00;99.70
27619;DHT22;15039;50.830;4.730;2023-02-28T12:35:16;4.90;99.20
27619;DHT22;15039;50.830;4.730;2023-02-28T12:37:57;4.80;98.80
27619;DHT22;15039;50.830;4.730;2023-02-28T12:40:31;4.90;99.10
27619;DHT22;15039;50.830;4.730;2023-02-28T12:43:03;4.90;99.30
27619;DHT22;15039;50.830;4.730;2023-02-28T12:45:56;4.90;98.80
27619;DHT22;15039;50.830;4.730;2023-02-28T12:48:28;5.00;98.70
27619;DHT22;15039;50.830;4.730;2023-02-28T12:50:54;5.00;98.50
27619;DHT22;15039;50.830;4.730;2023-02-28T12:58:50;5.20;99.10
27619;DHT22;15039;50.830;4.730;2023-02-28T13:01:56;5.10;98.30
27619;DHT22;15039;50.830;4.730;2023-02-28T13:09:30;5.10;98.50
27619;DHT22;15039;50.830;4.730;2023-02-28T13:11:58;5.20;98.40
27619;DHT22;15039;50.830;4.730;2023-02-28T13:14:35;5.20;98.80
27619;DHT22;15039;50.830;4.730;2023-02-28T13:19:37;5.10;98.80
27619;DHT22;15039;50.830;4.730;2023-02-28T13:22:03;5.20;98.90
27619;DHT22;15039;50.830;4.730;2023-02-28T13:29:41;5.40;98.50
27619;DHT22;15039;50.830;4.730;2023-02-28T13:34:34;5.30;98.60
27619;DHT22;15039;50.830;4.730;2023-02-28T13:39:54;5.40;98.90
27619;DHT22;15039;50.830;4.730;2023-02-28T13:47:39;5.50;98.00
27619;DHT22;15039;50.830;4.730;2023-02-28T13:50:27;5.50;98.50
27619;DHT22;15039;50.830;4.730;2023-02-28T13:58:57;5.40;98.60
27619;DHT22;15039;50.830;4.730;2023-02-28T14:06:37;5.30;97.80
27619;DHT22;15039;50.830;4.730;2023-02-28T14:09:35;5.30;98.00
27619;DHT22;15039;50.830;4.730;2023-02-28T14:18:01;5.40;97.60
27619;DHT22;15039;50.830;4.730;2023-02-28T14:20:31;5.40;98.00
27619;DHT22;15039;50.830;4.730;2023-02-28T14:23:16;5.40;97.90
27619;DHT22;15039;50.830;4.730;2023-02-28T14:25:59;5.40;98.30
27619;DHT22;15039;50.830;4.730;2023-02-28T14:28:43;5.50;98.30
27619;DHT22;15039;50.830;4.730;2023-02-28T14:31:28;5.60;97.70
27619;DHT22;15039;50.830;4.730;2023-02-28T14:36:42;5.60;97.90
27619;DHT22;15039;50.830;4.730;2023-02-28T14:39:16;5.60;97.70
27619;DHT22;15039;50.830;4.730;2023-02-28T14:41:45;5.50;97.30
27619;DHT22;15039;50.830;4.730;2023-02-28T14:44:15;5.60;97.60
27619;DHT22;15039;50.830;4.730;2023-02-28T14:46:42;5.70;97.50
27619;DHT22;15039;50.830;4.730;2023-02-28T14:49:32;5.70;97.60
27619;DHT22;15039;50.830;4.730;2023-02-28T14:52:19;5.50;97.90
27619;DHT22;15039;50.830;4.730;2023-02-28T14:54:46;5.50;97.90
27619;DHT22;15039;50.830;4.730;2023-02-28T15:02:33;5.50;98.00
27619;DHT22;15039;50.830;4.730;2023-02-28T15:05:09;5.60;98.10
27619;DHT22;15039;50.830;4.730;2023-02-28T15:07:39;5.70;98.60
27619;DHT22;15039;50.830;4.730;2023-02-28T15:10:24;5.80;98.40
27619;DHT22;15039;50.830;4.730;2023-02-28T15:12:56;5.70;98.20
27619;DHT22;15039;50.830;4.730;2023-02-28T15:17:59;5.70;98.30
27619;DHT22;15039;50.830;4.730;2023-02-28T15:20:26;5.70;98.60
27619;DHT22;15039;50.830;4.730;2023-02-28T15:22:53;5.70;98.00
27619;DHT22;15039;50.830;4.730;2023-02-28T15:25:21;5.70;98.50
27619;DHT22;15039;50.830;4.730;2023-02-28T15:27:53;5.70;98.30
27619;DHT22;15039;50.830;4.730;2023-02-28T15:30:21;5.70;98.70
27619;DHT22;15039;50.830;4.730;2023-02-28T15:35:38;5.60;98.60
27619;DHT22;15039;50.830;4.730;2023-02-28T15:38:26;5.70;99.40
27619;DHT22;15039;50.830;4.730;2023-02-28T15:40:57;5.60;98.80
27619;DHT22;15039;50.830;4.730;2023-02-28T15:43:31;5.50;98.70
27619;DHT22;15039;50.830;4.730;2023-02-28T15:46:04;5.50;98.90
27619;DHT22;15039;50.830;4.730;2023-02-28T15:48:36;5.60;99.30
27619;DHT22;15039;50.830;4.730;2023-02-28T15:51:20;5.70;99.00
27619;DHT22;15039;50.830;4.730;2023-02-28T15:54:12;5.60;99.00
27619;DHT22;15039;50.830;4.730;2023-02-28T15:56:46;5.50;99.00
27619;DHT22;15039;50.830;4.730;2023-02-28T15:59:21;5.40;98.90
27619;DHT22;15039;50.830;4.730;2023-02-28T16:02:15;5.30;99.50
27619;DHT22;15039;50.830;4.730;2023-02-28T16:07:37;5.30;99.30
27619;DHT22;15039;50.830;4.730;2023-02-28T16:10:04;5.20;99.60
27619;DHT22;15039;50.830;4.730;2023-02-28T16:12:33;5.20;99.30
27619;DHT22;15039;50.830;4.730;2023-02-28T16:15:03;5.30;99.50
27619;DHT22;15039;50.830;4.730;2023-02-28T16:17:37;5.10;99.10
27619;DHT22;15039;50.830;4.730;2023-02-28T16:20:24;5.10;99.60
27619;DHT22;15039;50.830;4.730;2023-02-28T16:22:50;5.20;99.90
27619;DHT22;15039;50.830;4.730;2023-02-28T16:25:18;5.20;99.60
27619;DHT22;15039;50.830;4.730;2023-02-28T16:27:45;5.20;99.10
27619;DHT22;15039;50.830;4.730;2023-02-28T16:30:30;5.20;99.20
27619;DHT22;15039;50.830;4.730;2023-02-28T16:32:58;5.10;99.40
27619;DHT22;15039;50.830;4.730;2023-02-28T16:35:24;5.10;99.70
27619;DHT22;15039;50.830;4.730;2023-02-28T16:37:51;5.10;99.60
27619;DHT22;15039;50.830;4.730;2023-02-28T16:40:22;5.00;99.90
27619;DHT22;15039;50.830;4.730;2023-02-28T16:42:53;4.90;99.90
27619;DHT22;15039;50.830;4.730;2023-02-28T16:45:24;4.80;99.90
27619;DHT22;15039;50.830;4.730;2023-02-28T16:47:50;4.80;99.90
27619;DHT22;15039;50.830;4.730;2023-02-28T16:50:18;4.80;99.90
27619;DHT22;15039;50.830;4.730;2023-02-28T16:52:44;4.80;99.90
27619;DHT22;15039;50.830;4.730;2023-02-28T16:55:11;4.70;99.90
27619;DHT22;15039;50.830;4.730;2023-02-28T16:57:38;4.60;99.90
27619;DHT22;15039;50.830;4.730;2023-02-28T17:00:05;4.60;99.90
27619;DHT22;15039;50.830;4.730;2023-02-28T17:02:33;4.60;99.90
27619;DHT22;15039;50.830;4.730;2023-02-28T17:04:59;4.60;99.90
27619;DHT22;15039;50.830;4.730;2023-02-28T17:07:24;4.50;99.90
27619;DHT22;15039;50.830;4.730;2023-02-28T17:09:50;4.40;99.90
27619;DHT22;15039;50.830;4.730;2023-02-28T17:12:16;4.20;99.90
27619;DHT22;15039;50.830;4.730;2023-02-28T17:14:41;4.10;99.90
27619;DHT22;15039;50.830;4.730;2023-02-28T17:17:09;4.10;99.90
27619;DHT22;15039;50.830;4.730;2023-02-28T17:19:35;3.90;99.90
27619;DHT22;15039;50.830;4.730;2023-02-28T17:22:01;3.80;99.90
27619;DHT22;15039;50.830;4.730;2023-02-28T17:24:28;4.00;99.90
27619;DHT22;15039;50.830;4.730;2023-02-28T17:26:54;4.00;99.90
27619;DHT22;15039;50.830;4.730;2023-02-28T17:29:21;3.90;99.90
27619;DHT22;15039;50.830;4.730;2023-02-28T17:31:47;3.80;99.90
27619;DHT22;15039;50.830;4.730;2023-02-28T17:34:13;3.90;99.90
27619;DHT22;15039;50.830;4.730;2023-02-28T17:36:45;3.80;99.90
27619;DHT22;15039;50.830;4.730;2023-02-28T17:39:12;3.70;99.90
27619;DHT22;15039;50.830;4.730;2023-02-28T17:41:40;3.60;99.90
27619;DHT22;15039;50.830;4.730;2023-02-28T17:44:06;3.40;99.90
27619;DHT22;15039;50.830;4.730;2023-02-28T17:46:32;3.40;99.90
27619;DHT22;15039;50.830;4.730;2023-02-28T17:48:57;3.40;99.90
27619;DHT22;15039;50.830;4.730;2023-02-28T17:51:24;3.30;99.90
27619;DHT22;15039;50.830;4.730;2023-02-28T17:53:49;3.20;99.90
27619;DHT22;15039;50.830;4.730;2023-02-28T17:56:24;3.30;99.90
27619;DHT22;15039;50.830;4.730;2023-02-28T17:58:52;3.20;99.90
27619;DHT22;15039;50.830;4.730;2023-02-28T18:01:18;3.00;99.90
27619;DHT22;15039;50.830;4.730;2023-02-28T18:03:45;3.00;99.90
27619;DHT22;15039;50.830;4.730;2023-02-28T18:08:47;2.80;99.90
27619;DHT22;15039;50.830;4.730;2023-02-28T18:11:12;2.80;99.90
27619;DHT22;15039;50.830;4.730;2023-02-28T18:13:45;2.70;99.90